createdAt,value
2017-11-26T00:00:22.032Z,87.40
2017-11-26T00:02:49.719Z,87.30
2017-11-26T00:05:17.343Z,86.60
2017-11-26T00:07:44.977Z,87.80
2017-11-26T00:10:13.372Z,87.40
2017-11-26T00:12:41.001Z,87.40
2017-11-26T00:15:08.637Z,90.00
2017-11-26T00:17:36.223Z,87.70
2017-11-26T00:20:04.631Z,88.10
2017-11-26T00:22:32.244Z,88.00
2017-11-26T00:24:59.849Z,89.10
2017-11-26T00:27:28.216Z,88.20
2017-11-26T00:29:56.611Z,87.40
2017-11-26T00:32:24.967Z,87.30
2017-11-26T00:34:53.379Z,85.40
2017-11-26T00:37:20.971Z,85.70
2017-11-26T00:39:48.640Z,87.40
2017-11-26T00:42:16.243Z,86.20
2017-11-26T00:44:44.656Z,86.30
2017-11-26T00:47:12.279Z,86.30
2017-11-26T00:49:40.638Z,87.50
2017-11-26T00:52:08.249Z,87.40
2017-11-26T00:54:35.855Z,86.50
2017-11-26T00:57:03.492Z,86.70
2017-11-26T00:59:31.859Z,87.80
2017-11-26T01:01:59.469Z,87.70
2017-11-26T01:04:27.834Z,87.80
2017-11-26T01:06:55.417Z,87.80
2017-11-26T01:09:23.805Z,88.90
2017-11-26T01:11:51.411Z,88.70
2017-11-26T01:14:19.038Z,88.60
2017-11-26T01:16:46.617Z,88.90
2017-11-26T01:19:14.220Z,88.40
2017-11-26T01:21:41.816Z,88.00
2017-11-26T01:24:09.413Z,90.10
2017-11-26T01:26:37.002Z,87.80
2017-11-26T01:29:04.597Z,87.40
2017-11-26T01:31:32.244Z,87.30
2017-11-26T01:34:00.639Z,85.20
2017-11-26T01:36:28.231Z,85.20
2017-11-26T01:38:55.826Z,85.90
2017-11-26T01:41:24.191Z,88.10
2017-11-26T01:43:51.787Z,87.50
2017-11-26T01:46:19.375Z,87.60
2017-11-26T01:48:46.969Z,85.80
2017-11-26T01:51:14.567Z,87.30
2017-11-26T01:53:42.246Z,86.00
2017-11-26T01:56:09.816Z,86.00
2017-11-26T01:58:37.444Z,86.90
2017-11-26T02:01:05.107Z,88.00
2017-11-26T02:03:32.702Z,88.20
2017-11-26T02:06:00.301Z,88.40
2017-11-26T02:08:27.923Z,87.00
2017-11-26T02:10:55.520Z,88.10
2017-11-26T02:13:23.106Z,89.20
2017-11-26T02:15:51.597Z,88.50
2017-11-26T02:18:19.183Z,88.40
2017-11-26T02:20:46.787Z,88.80
2017-11-26T02:23:14.430Z,87.90
2017-11-26T02:25:42.034Z,88.10
2017-11-26T02:28:09.625Z,88.30
2017-11-26T02:30:37.241Z,87.60
2017-11-26T02:33:17.391Z,85.90
2017-11-26T02:35:56.594Z,85.40
2017-11-26T02:38:24.179Z,85.40
2017-11-26T02:40:51.798Z,85.40
2017-11-26T02:43:19.388Z,84.40
2017-11-26T02:45:47.008Z,84.70
2017-11-26T02:48:14.596Z,84.90
2017-11-26T02:50:42.303Z,85.20
2017-11-26T02:53:09.897Z,84.70
2017-11-26T02:55:37.495Z,85.00
2017-11-26T02:58:05.082Z,83.40
2017-11-26T03:00:32.675Z,85.70
2017-11-26T03:03:00.269Z,85.40
2017-11-26T03:05:27.924Z,85.30
2017-11-26T03:07:55.533Z,84.70
2017-11-26T03:10:23.169Z,84.20
2017-11-26T03:12:51.538Z,81.40
2017-11-26T03:15:19.116Z,81.40
2017-11-26T03:17:47.515Z,81.90
2017-11-26T03:20:15.105Z,81.90
2017-11-26T03:22:42.690Z,82.10
2017-11-26T03:25:10.287Z,82.80
2017-11-26T03:27:39.377Z,83.10
2017-11-26T03:30:07.021Z,83.10
2017-11-26T03:32:35.368Z,80.60
2017-11-26T03:35:02.963Z,80.60
2017-11-26T03:37:31.319Z,81.90
2017-11-26T03:39:58.929Z,81.70
2017-11-26T03:42:26.507Z,79.90
2017-11-26T03:44:54.124Z,81.40
2017-11-26T03:47:22.488Z,80.60
2017-11-26T03:49:50.101Z,79.90
2017-11-26T03:52:17.692Z,80.00
2017-11-26T03:54:45.282Z,82.60
2017-11-26T03:57:13.708Z,80.60
2017-11-26T03:59:41.303Z,80.50
2017-11-26T04:02:08.916Z,78.40
2017-11-26T04:04:36.530Z,79.70
2017-11-26T04:07:04.131Z,79.70
2017-11-26T04:11:56.292Z,79.80
2017-11-26T04:14:24.659Z,80.50
2017-11-26T04:16:52.255Z,80.50
2017-11-26T04:19:19.872Z,79.20
2017-11-26T04:21:47.475Z,78.80
2017-11-26T04:24:15.085Z,80.40
2017-11-26T04:26:42.688Z,78.50
2017-11-26T04:29:11.071Z,80.50
2017-11-26T04:31:39.439Z,81.40
2017-11-26T04:34:07.823Z,77.60
2017-11-26T04:36:36.188Z,79.60
2017-11-26T04:39:04.619Z,75.30
2017-11-26T04:41:32.279Z,74.80
2017-11-26T04:43:59.876Z,77.20
2017-11-26T04:46:27.463Z,79.50
2017-11-26T04:48:55.855Z,77.90
2017-11-26T04:51:24.280Z,77.50
2017-11-26T04:53:51.892Z,77.50
2017-11-26T04:56:20.255Z,78.50
2017-11-26T04:58:47.840Z,78.40
2017-11-26T05:01:16.264Z,74.90
2017-11-26T05:03:43.879Z,74.90
2017-11-26T05:06:12.255Z,79.70
2017-11-26T05:08:40.618Z,79.70
2017-11-26T05:11:08.219Z,79.70
2017-11-26T05:13:35.787Z,77.70
2017-11-26T05:16:03.406Z,80.20
2017-11-26T05:18:31.002Z,81.60
2017-11-26T05:20:58.614Z,77.20
2017-11-26T05:23:26.202Z,77.60
2017-11-26T05:25:54.573Z,79.20
2017-11-26T05:28:22.167Z,79.20
2017-11-26T05:30:49.856Z,78.90
2017-11-26T05:33:17.716Z,74.90
2017-11-26T05:35:45.307Z,78.40
2017-11-26T05:38:12.911Z,79.60
2017-11-26T05:40:40.536Z,76.60
2017-11-26T05:43:08.139Z,76.30
2017-11-26T05:45:35.756Z,80.00
2017-11-26T05:48:03.351Z,77.90
2017-11-26T05:50:31.699Z,76.50
2017-11-26T05:52:59.311Z,76.40
2017-11-26T05:55:28.469Z,79.40
2017-11-26T05:57:56.055Z,79.40
2017-11-26T06:00:24.457Z,76.90
2017-11-26T06:02:52.076Z,76.90
2017-11-26T06:05:19.668Z,78.00
2017-11-26T06:07:47.270Z,78.50
2017-11-26T06:10:14.868Z,78.30
2017-11-26T06:12:43.269Z,79.70
2017-11-26T06:15:11.642Z,77.50
2017-11-26T06:17:39.240Z,77.50
2017-11-26T06:20:06.876Z,79.10
2017-11-26T06:22:34.496Z,79.60
2017-11-26T06:25:02.096Z,81.40
2017-11-26T06:27:29.706Z,81.00
2017-11-26T06:29:57.303Z,77.50
2017-11-26T06:32:25.673Z,78.40
2017-11-26T06:34:53.287Z,78.30
2017-11-26T06:37:20.880Z,80.40
2017-11-26T06:39:48.566Z,79.70
2017-11-26T06:42:16.946Z,78.30
2017-11-26T06:44:45.331Z,79.10
2017-11-26T06:47:13.764Z,77.70
2017-11-26T06:49:41.366Z,77.70
2017-11-26T06:52:09.835Z,79.20
2017-11-26T06:54:37.429Z,79.10
2017-11-26T06:57:05.024Z,77.40
2017-11-26T06:59:32.667Z,76.30
2017-11-26T07:02:01.056Z,77.10
2017-11-26T07:04:28.640Z,77.10
2017-11-26T07:06:56.264Z,79.20
2017-11-26T07:09:23.868Z,80.10
2017-11-26T07:11:51.495Z,80.90
2017-11-26T07:14:19.132Z,78.00
2017-11-26T07:16:47.494Z,80.40
2017-11-26T07:19:15.128Z,80.40
2017-11-26T07:21:42.715Z,80.80
2017-11-26T07:24:10.334Z,79.20
2017-11-26T07:26:37.929Z,78.60
2017-11-26T07:29:05.631Z,80.60
2017-11-26T07:31:33.985Z,80.10
2017-11-26T07:34:01.566Z,80.00
2017-11-26T07:36:29.940Z,79.90
2017-11-26T07:38:58.299Z,79.80
2017-11-26T07:41:25.936Z,79.80
2017-11-26T07:43:53.550Z,80.50
2017-11-26T07:46:21.946Z,78.40
2017-11-26T07:48:49.586Z,78.30
2017-11-26T07:51:17.988Z,80.50
2017-11-26T07:53:45.575Z,80.50
2017-11-26T07:56:13.199Z,79.90
2017-11-26T07:58:41.678Z,79.30
2017-11-26T08:01:10.062Z,78.00
2017-11-26T08:03:38.468Z,80.30
2017-11-26T08:06:06.098Z,80.20
2017-11-26T08:08:34.492Z,79.50
2017-11-26T08:11:03.417Z,79.50
2017-11-26T08:13:31.489Z,79.50
2017-11-26T08:15:59.111Z,79.40
2017-11-26T08:18:27.567Z,80.40
2017-11-26T08:20:55.172Z,80.40
2017-11-26T08:23:22.815Z,80.10
2017-11-26T08:25:51.176Z,79.70
2017-11-26T08:28:18.789Z,79.50
2017-11-26T08:30:46.415Z,79.70
2017-11-26T08:33:14.818Z,80.00
2017-11-26T08:35:42.440Z,80.00
2017-11-26T08:38:10.052Z,79.40
2017-11-26T08:40:38.555Z,80.20
2017-11-26T08:43:06.187Z,80.70
2017-11-26T08:45:33.794Z,79.80
2017-11-26T08:48:01.447Z,81.40
2017-11-26T08:50:29.071Z,81.50
2017-11-26T08:52:56.678Z,81.60
2017-11-26T08:55:24.290Z,80.10
2017-11-26T08:57:51.947Z,80.30
2017-11-26T09:00:20.367Z,81.00
2017-11-26T09:02:47.961Z,81.40
2017-11-26T09:05:16.160Z,79.40
2017-11-26T09:07:44.554Z,80.70
2017-11-26T09:10:12.968Z,79.50
2017-11-26T09:12:40.606Z,79.50
2017-11-26T09:15:08.210Z,78.60
2017-11-26T09:17:35.842Z,78.30
2017-11-26T09:20:03.476Z,79.20
2017-11-26T09:22:31.862Z,76.60
2017-11-26T09:24:59.531Z,76.60
2017-11-26T09:27:27.131Z,78.30
2017-11-26T09:29:54.775Z,79.70
2017-11-26T09:32:22.419Z,78.40
2017-11-26T09:34:50.042Z,76.70
2017-11-26T09:37:17.658Z,78.40
2017-11-26T09:39:45.272Z,77.80
2017-11-26T09:42:12.877Z,78.00
2017-11-26T09:44:40.684Z,78.20
2017-11-26T09:47:08.302Z,75.60
2017-11-26T09:49:35.933Z,76.40
2017-11-26T09:52:04.347Z,78.40
2017-11-26T09:54:31.929Z,78.30
2017-11-26T09:56:59.550Z,78.10
2017-11-26T09:59:27.900Z,79.00
2017-11-26T10:01:55.499Z,79.00
2017-11-26T10:04:23.884Z,77.80
2017-11-26T10:06:51.480Z,77.80
2017-11-26T10:09:19.136Z,77.10
2017-11-26T10:11:46.834Z,77.40
2017-11-26T10:14:14.452Z,75.70
2017-11-26T10:16:42.062Z,79.00
2017-11-26T10:19:10.484Z,77.20
2017-11-26T10:21:38.087Z,77.80
2017-11-26T10:24:05.732Z,78.30
2017-11-26T10:26:33.343Z,76.90
2017-11-26T10:29:01.781Z,77.80
2017-11-26T10:31:30.164Z,75.30
2017-11-26T10:33:57.807Z,75.30
2017-11-26T10:36:25.432Z,75.20
2017-11-26T10:38:53.830Z,78.00
2017-11-26T10:41:21.461Z,77.80
2017-11-26T10:43:49.095Z,75.80
2017-11-26T10:46:16.734Z,76.00
2017-11-26T10:48:44.303Z,74.20
2017-11-26T10:51:11.892Z,76.20
2017-11-26T10:53:39.508Z,77.40
2017-11-26T10:56:08.031Z,77.60
2017-11-26T10:58:35.637Z,79.80
2017-11-26T11:01:04.010Z,77.50
2017-11-26T11:03:32.386Z,77.10
2017-11-26T11:06:00.756Z,76.00
2017-11-26T11:08:28.347Z,76.00
2017-11-26T11:10:55.945Z,79.00
2017-11-26T11:13:23.621Z,75.90
2017-11-26T11:15:51.212Z,76.40
2017-11-26T11:18:19.607Z,74.20
2017-11-26T11:20:47.952Z,74.10
2017-11-26T11:23:15.543Z,73.90
2017-11-26T11:25:43.995Z,74.50
2017-11-26T11:28:12.384Z,74.60
2017-11-26T11:30:39.990Z,74.50
2017-11-26T11:33:09.405Z,73.80
2017-11-26T11:35:37.055Z,72.90
2017-11-26T11:38:04.651Z,73.30
2017-11-26T11:40:32.269Z,72.70
2017-11-26T11:43:00.631Z,72.20
2017-11-26T11:45:29.021Z,71.90
2017-11-26T11:47:57.404Z,73.40
2017-11-26T11:50:25.780Z,71.30
2017-11-26T11:52:54.625Z,71.30
2017-11-26T11:55:22.221Z,72.50
2017-11-26T11:57:50.598Z,72.40
2017-11-26T12:00:18.942Z,72.20
2017-11-26T12:02:46.564Z,72.00
2017-11-26T12:05:14.170Z,71.60
2017-11-26T12:07:41.832Z,71.30
2017-11-26T12:10:09.912Z,72.20
2017-11-26T12:12:37.535Z,70.60
2017-11-26T12:15:05.119Z,70.50
2017-11-26T12:17:32.694Z,73.30
2017-11-26T12:20:00.324Z,69.70
2017-11-26T12:22:28.223Z,70.20
2017-11-26T12:24:55.851Z,71.60
2017-11-26T12:27:23.437Z,69.30
2017-11-26T12:29:51.051Z,68.90
2017-11-26T12:32:19.407Z,69.20
2017-11-26T12:34:47.074Z,69.30
2017-11-26T12:37:14.708Z,69.50
2017-11-26T12:39:42.280Z,70.50
2017-11-26T12:42:09.919Z,71.00
2017-11-26T12:44:37.504Z,69.00
2017-11-26T12:47:05.120Z,70.80
2017-11-26T12:49:32.738Z,70.00
2017-11-26T12:52:00.351Z,70.30
2017-11-26T12:54:27.999Z,69.20
2017-11-26T12:56:55.635Z,68.90
2017-11-26T12:59:23.217Z,69.50
2017-11-26T13:01:51.609Z,71.50
2017-11-26T13:04:19.229Z,71.40
2017-11-26T13:06:47.637Z,73.20
2017-11-26T13:09:15.997Z,72.70
2017-11-26T13:11:43.610Z,72.60
2017-11-26T13:14:11.200Z,72.60
2017-11-26T13:16:38.871Z,73.10
2017-11-26T13:19:06.472Z,82.30
2017-11-26T13:21:34.162Z,86.10
2017-11-26T13:24:01.760Z,90.60
2017-11-26T13:26:29.343Z,90.80
2017-11-26T13:28:57.739Z,92.10
2017-11-26T13:31:26.145Z,91.00
2017-11-26T13:33:53.753Z,91.00
2017-11-26T13:36:21.331Z,92.70
2017-11-26T13:38:49.772Z,91.70
2017-11-26T13:41:17.363Z,91.70
2017-11-26T13:43:44.977Z,91.00
2017-11-26T13:46:12.647Z,91.80
2017-11-26T13:48:40.267Z,90.30
2017-11-26T13:51:08.688Z,89.60
2017-11-26T13:53:36.309Z,89.60
2017-11-26T13:56:04.028Z,91.70
2017-11-26T13:58:32.403Z,90.00
2017-11-26T14:01:00.039Z,90.30
2017-11-26T14:03:27.628Z,90.00
2017-11-26T14:05:55.576Z,90.70
2017-11-26T14:08:23.282Z,90.40
2017-11-26T14:10:50.952Z,90.50
2017-11-26T14:13:18.570Z,90.80
2017-11-26T14:15:46.162Z,90.50
2017-11-26T14:18:13.868Z,90.80
2017-11-26T14:20:42.328Z,90.60
2017-11-26T14:23:09.942Z,90.70
2017-11-26T14:25:37.553Z,90.50
2017-11-26T14:28:05.233Z,90.50
2017-11-26T14:30:33.588Z,90.10
2017-11-26T14:33:01.238Z,90.00
2017-11-26T14:35:29.209Z,89.50
2017-11-26T14:37:56.932Z,90.00
2017-11-26T14:40:24.598Z,90.30
2017-11-26T14:42:52.328Z,91.00
2017-11-26T14:45:20.777Z,88.90
2017-11-26T14:47:48.381Z,88.80
2017-11-26T14:50:16.795Z,88.90
2017-11-26T14:52:44.420Z,89.00
2017-11-26T14:55:12.799Z,90.50
2017-11-26T14:57:40.399Z,90.50
2017-11-26T15:00:08.007Z,89.00
2017-11-26T15:02:35.613Z,89.80
2017-11-26T15:05:03.239Z,89.00
2017-11-26T15:07:31.623Z,88.40
2017-11-26T15:09:59.994Z,90.90
2017-11-26T15:12:27.583Z,90.70
2017-11-26T15:14:55.232Z,89.90
2017-11-26T15:17:23.604Z,89.10
2017-11-26T15:19:51.972Z,90.00
2017-11-26T15:22:19.558Z,90.00
2017-11-26T15:24:47.203Z,89.10
2017-11-26T15:27:15.702Z,89.30
2017-11-26T15:29:44.396Z,88.70
2017-11-26T15:32:13.213Z,88.70
2017-11-26T15:34:41.062Z,90.30
2017-11-26T15:37:08.677Z,90.00
2017-11-26T15:39:36.300Z,90.30
2017-11-26T15:42:03.925Z,90.60
2017-11-26T15:44:32.270Z,90.40
2017-11-26T15:46:59.904Z,90.40
2017-11-26T15:49:27.515Z,90.00
2017-11-26T15:51:55.128Z,89.60
2017-11-26T15:54:22.767Z,90.20
2017-11-26T15:56:51.444Z,90.10
2017-11-26T15:59:19.838Z,90.10
2017-11-26T16:01:48.203Z,88.60
2017-11-26T16:04:16.556Z,90.20
2017-11-26T16:06:44.171Z,90.20
2017-11-26T16:09:11.811Z,90.40
2017-11-26T16:11:40.189Z,90.00
2017-11-26T16:14:08.610Z,90.00
2017-11-26T16:16:36.212Z,90.00
2017-11-26T16:19:03.843Z,88.90
2017-11-26T16:21:31.455Z,90.20
2017-11-26T16:23:59.860Z,90.50
2017-11-26T16:26:27.656Z,90.40
2017-11-26T16:28:55.276Z,88.50
2017-11-26T16:31:22.895Z,87.80
2017-11-26T16:33:50.524Z,87.30
2017-11-26T16:36:18.167Z,89.40
2017-11-26T16:38:45.807Z,86.70
2017-11-26T16:41:13.449Z,88.60
2017-11-26T16:43:41.048Z,89.50
2017-11-26T16:46:09.428Z,89.00
2017-11-26T16:48:37.799Z,88.40
2017-11-26T16:51:06.188Z,89.50
2017-11-26T16:53:34.568Z,88.90
2017-11-26T16:56:02.952Z,88.60
2017-11-26T16:58:31.372Z,89.50
2017-11-26T17:00:59.005Z,89.40
2017-11-26T17:03:26.616Z,88.50
2017-11-26T17:05:54.224Z,88.10
2017-11-26T17:08:21.837Z,89.10
2017-11-26T17:10:49.451Z,87.50
2017-11-26T17:13:17.094Z,89.20
2017-11-26T17:15:45.466Z,89.80
2017-11-26T17:18:13.867Z,90.90
2017-11-26T17:20:42.230Z,90.70
2017-11-26T17:23:10.626Z,91.30
2017-11-26T17:25:38.970Z,91.10
2017-11-26T17:28:06.605Z,91.10
2017-11-26T17:30:34.221Z,90.70
2017-11-26T17:33:02.614Z,90.20
2017-11-26T17:35:31.623Z,90.10
2017-11-26T17:37:59.276Z,90.20
2017-11-26T17:40:26.941Z,90.30
2017-11-26T17:42:54.585Z,90.40
2017-11-26T17:45:22.983Z,90.70
2017-11-26T17:47:50.632Z,90.70
2017-11-26T17:50:19.009Z,90.70
2017-11-26T17:52:47.365Z,91.40
2017-11-26T17:55:16.071Z,91.40
2017-11-26T17:57:44.450Z,90.70
2017-11-26T18:00:12.835Z,90.40
2017-11-26T18:02:41.214Z,90.70
2017-11-26T18:05:09.621Z,90.20
2017-11-26T18:07:37.245Z,90.20
2017-11-26T18:10:04.861Z,88.50
2017-11-26T18:12:32.507Z,86.80
2017-11-26T18:15:00.191Z,87.40
2017-11-26T18:17:27.820Z,89.80
2017-11-26T18:19:55.447Z,87.70
2017-11-26T18:22:23.056Z,86.50
2017-11-26T18:24:50.678Z,88.40
2017-11-26T18:27:18.469Z,88.00
2017-11-26T18:29:46.096Z,88.40
2017-11-26T18:32:13.731Z,87.00
2017-11-26T18:34:41.332Z,86.20
2017-11-26T18:37:08.980Z,88.00
2017-11-26T18:39:36.591Z,87.30
2017-11-26T18:42:04.221Z,88.10
2017-11-26T18:44:31.909Z,87.30
2017-11-26T18:46:59.597Z,85.90
2017-11-26T18:49:27.251Z,89.00
2017-11-26T18:51:54.949Z,86.80
2017-11-26T18:54:22.548Z,87.70
2017-11-26T18:56:50.931Z,87.80
2017-11-26T18:59:19.348Z,87.90
2017-11-26T19:01:47.464Z,87.90
2017-11-26T19:04:15.122Z,87.80
2017-11-26T19:06:42.773Z,87.80
2017-11-26T19:09:10.423Z,88.50
2017-11-26T19:11:38.097Z,88.30
2017-11-26T19:14:05.864Z,88.40
2017-11-26T19:16:33.762Z,88.30
2017-11-26T19:19:01.457Z,87.90
2017-11-26T19:21:29.135Z,87.00
2017-11-26T19:23:56.760Z,87.50
2017-11-26T19:26:26.557Z,88.20
2017-11-26T19:28:54.163Z,88.10
2017-11-26T19:31:21.818Z,89.90
2017-11-26T19:33:49.475Z,89.60
2017-11-26T19:36:17.110Z,89.30
2017-11-26T19:38:44.808Z,88.40
2017-11-26T19:41:12.428Z,89.00
2017-11-26T19:43:40.064Z,90.20
2017-11-26T19:46:07.663Z,90.00
2017-11-26T19:48:35.265Z,90.40
2017-11-26T19:51:02.857Z,90.20
2017-11-26T19:53:30.488Z,90.70
2017-11-26T19:55:58.081Z,90.70
2017-11-26T19:58:27.467Z,90.50
2017-11-26T20:00:55.176Z,90.70
2017-11-26T20:03:22.863Z,90.60
2017-11-26T20:05:50.522Z,90.40
2017-11-26T20:08:18.937Z,90.30
2017-11-26T20:10:46.574Z,90.20
2017-11-26T20:13:14.954Z,90.00
2017-11-26T20:15:42.691Z,90.00
2017-11-26T20:18:10.363Z,90.20
2017-11-26T20:20:38.778Z,89.50
2017-11-26T20:23:06.413Z,89.50
2017-11-26T20:25:34.814Z,90.50
2017-11-26T20:28:02.429Z,90.50
2017-11-26T20:30:30.074Z,90.00
2017-11-26T20:32:57.693Z,90.00
2017-11-26T20:35:26.077Z,89.90
2017-11-26T20:37:53.722Z,89.90
2017-11-26T20:40:22.096Z,90.10
2017-11-26T20:42:50.497Z,90.10
2017-11-26T20:45:18.877Z,89.50
2017-11-26T20:47:47.259Z,90.00
2017-11-26T20:50:15.632Z,89.00
2017-11-26T20:52:44.523Z,89.90
2017-11-26T20:55:12.136Z,89.90
2017-11-26T20:57:39.778Z,87.70
2017-11-26T21:00:07.388Z,88.40
2017-11-26T21:02:35.020Z,88.70
2017-11-26T21:05:02.867Z,89.20
2017-11-26T21:07:30.825Z,87.30
2017-11-26T21:09:58.727Z,88.90
2017-11-26T21:12:27.403Z,87.90
2017-11-26T21:14:55.381Z,87.80
2017-11-26T21:17:24.059Z,88.70
2017-11-26T21:19:51.976Z,88.60
2017-11-26T21:22:19.896Z,86.90
2017-11-26T21:24:49.351Z,86.10
2017-11-26T21:27:18.114Z,86.70
2017-11-26T21:29:46.836Z,88.00
2017-11-26T21:32:14.734Z,88.00
2017-11-26T21:34:42.649Z,86.40
2017-11-26T21:37:10.536Z,88.10
2017-11-26T21:39:38.467Z,88.30
2017-11-26T21:42:06.372Z,86.70
2017-11-26T21:44:34.316Z,87.40
2017-11-26T21:47:03.000Z,88.10
2017-11-26T21:49:31.695Z,88.70
2017-11-26T21:52:00.368Z,88.70
2017-11-26T21:54:29.044Z,89.10
2017-11-26T21:56:56.954Z,89.10
2017-11-26T21:59:24.907Z,88.90
2017-11-26T22:01:52.803Z,89.90
2017-11-26T22:04:20.733Z,89.40
2017-11-26T22:06:49.386Z,89.90
2017-11-26T22:09:17.289Z,89.80
2017-11-26T22:11:45.725Z,89.80
2017-11-26T22:14:13.349Z,89.80
2017-11-26T22:16:40.925Z,90.00
2017-11-26T22:19:09.304Z,89.70
2017-11-26T22:21:36.918Z,89.70
2017-11-26T22:24:04.607Z,89.60
2017-11-26T22:26:32.233Z,90.00
2017-11-26T22:28:59.859Z,90.00
2017-11-26T22:31:28.293Z,90.40
2017-11-26T22:33:55.912Z,90.40
2017-11-26T22:36:24.303Z,90.40
2017-11-26T22:38:53.646Z,90.30
2017-11-26T22:41:21.305Z,91.10
2017-11-26T22:43:48.931Z,90.90
2017-11-26T22:46:16.527Z,90.70
2017-11-26T22:48:44.179Z,89.50
2017-11-26T22:51:12.525Z,89.80
2017-11-26T22:53:40.932Z,90.40
2017-11-26T22:56:08.535Z,90.40
2017-11-26T22:58:36.219Z,90.50
2017-11-26T23:01:04.599Z,90.40
2017-11-26T23:03:32.973Z,90.30
2017-11-26T23:06:00.650Z,90.00
2017-11-26T23:08:29.020Z,90.30
2017-11-26T23:10:58.256Z,90.10
2017-11-26T23:13:25.852Z,89.80
2017-11-26T23:15:54.231Z,89.40
2017-11-26T23:18:21.839Z,89.40
2017-11-26T23:20:50.213Z,88.00
2017-11-26T23:23:18.600Z,87.40
2017-11-26T23:25:46.983Z,89.00
2017-11-26T23:28:14.631Z,88.90
2017-11-26T23:30:43.025Z,86.20
2017-11-26T23:33:11.399Z,86.00
2017-11-26T23:35:39.833Z,86.00
2017-11-26T23:38:07.444Z,85.90
2017-11-26T23:40:35.815Z,86.70
2017-11-26T23:43:04.191Z,86.60
2017-11-26T23:45:32.581Z,87.70
2017-11-26T23:48:01.051Z,87.30
2017-11-26T23:50:28.644Z,87.30
2017-11-26T23:52:56.260Z,88.70
2017-11-26T23:55:23.953Z,88.00
2017-11-26T23:57:52.324Z,88.90
